createdAt,value
2023-09-08T00:00:14.406Z,24.95
2023-09-08T00:02:44.313Z,25.06
2023-09-08T00:05:12.890Z,24.88
2023-09-08T00:07:41.368Z,24.80
2023-09-08T00:10:10.579Z,24.49
2023-09-08T00:12:38.908Z,24.47
2023-09-08T00:15:09.845Z,24.65
2023-09-08T00:17:42.133Z,24.55
2023-09-08T00:20:10.858Z,24.43
2023-09-08T00:22:40.553Z,24.67
2023-09-08T00:25:09.449Z,24.57
2023-09-08T00:27:38.028Z,24.47
2023-09-08T00:30:07.181Z,24.80
2023-09-08T00:32:35.968Z,24.68
2023-09-08T00:35:05.828Z,24.60
2023-09-08T00:37:34.882Z,24.39
2023-09-08T00:40:04.516Z,24.35
2023-09-08T00:42:32.858Z,24.22
2023-09-08T00:45:01.075Z,24.22
2023-09-08T00:47:30.415Z,24.10
2023-09-08T00:49:59.778Z,24.08
2023-09-08T00:52:28.034Z,24.03
2023-09-08T00:54:57.172Z,24.05
2023-09-08T00:57:25.861Z,24.00
2023-09-08T00:59:55.696Z,24.14
2023-09-08T01:02:24.457Z,24.10
2023-09-08T01:04:52.885Z,24.07
2023-09-08T01:07:22.587Z,23.91
2023-09-08T01:09:51.869Z,23.73
2023-09-08T01:12:22.321Z,23.74
2023-09-08T01:14:50.637Z,23.64
2023-09-08T01:17:19.360Z,23.63
2023-09-08T01:19:50.035Z,23.58
2023-09-08T01:22:28.595Z,23.60
2023-09-08T01:25:20.156Z,23.54
2023-09-08T01:27:54.151Z,23.62
2023-09-08T01:30:22.977Z,23.55
2023-09-08T01:32:53.343Z,23.45
2023-09-08T01:35:23.826Z,23.28
2023-09-08T01:37:54.697Z,23.35
2023-09-08T01:40:24.439Z,23.18
2023-09-08T01:42:53.587Z,23.10
2023-09-08T01:45:22.281Z,23.10
2023-09-08T01:47:55.073Z,22.99
2023-09-08T01:50:24.220Z,22.86
2023-09-08T01:52:52.868Z,22.72
2023-09-08T01:55:21.968Z,22.55
2023-09-08T01:57:50.288Z,22.37
2023-09-08T02:00:18.990Z,22.19
2023-09-08T02:02:48.086Z,22.10
2023-09-08T02:05:17.288Z,21.98
2023-09-08T02:07:45.677Z,21.88
2023-09-08T02:10:14.193Z,21.88
2023-09-08T02:12:42.707Z,21.72
2023-09-08T02:15:12.099Z,21.62
2023-09-08T02:17:40.443Z,21.51
2023-09-08T02:20:10.042Z,21.60
2023-09-08T02:22:39.227Z,21.54
2023-09-08T02:25:08.997Z,21.35
2023-09-08T02:27:37.415Z,21.01
2023-09-08T02:30:06.191Z,21.08
2023-09-08T02:32:36.179Z,21.11
2023-09-08T02:35:05.228Z,21.09
2023-09-08T02:37:33.461Z,21.16
2023-09-08T02:40:02.202Z,21.59
2023-09-08T02:42:30.398Z,21.37
2023-09-08T02:45:00.034Z,21.10
2023-09-08T02:47:28.776Z,21.18
2023-09-08T02:49:58.175Z,20.87
2023-09-08T02:52:27.942Z,20.63
2023-09-08T02:54:56.277Z,20.64
2023-09-08T02:57:24.830Z,20.62
2023-09-08T02:59:53.877Z,20.47
2023-09-08T03:02:26.974Z,20.34
2023-09-08T03:04:56.075Z,20.20
2023-09-08T03:07:24.917Z,20.15
2023-09-08T03:09:53.173Z,20.19
2023-09-08T03:12:21.760Z,20.12
2023-09-08T03:14:50.381Z,20.05
2023-09-08T03:17:19.621Z,20.07
2023-09-08T03:19:48.226Z,19.84
2023-09-08T03:22:16.786Z,19.76
2023-09-08T03:24:45.863Z,19.64
2023-09-08T03:27:14.192Z,19.22
2023-09-08T03:29:42.851Z,19.15
2023-09-08T03:32:11.378Z,18.93
2023-09-08T03:34:40.202Z,18.90
2023-09-08T03:37:08.471Z,18.81
2023-09-08T03:39:36.750Z,18.68
2023-09-08T03:42:06.056Z,18.53
2023-09-08T03:44:35.169Z,18.38
2023-09-08T03:47:06.618Z,18.44
2023-09-08T03:49:35.237Z,18.40
2023-09-08T03:52:07.047Z,18.42
2023-09-08T03:54:35.855Z,18.41
2023-09-08T03:57:04.646Z,18.30
2023-09-08T03:59:33.269Z,18.27
2023-09-08T04:02:01.857Z,18.11
2023-09-08T04:04:30.101Z,17.99
2023-09-08T04:06:58.403Z,17.84
2023-09-08T04:09:27.655Z,17.69
2023-09-08T04:11:56.699Z,17.61
2023-09-08T04:14:25.509Z,17.50
2023-09-08T04:16:54.590Z,17.38
2023-09-08T04:19:23.181Z,17.28
2023-09-08T04:21:51.820Z,17.11
2023-09-08T04:24:20.355Z,17.01
2023-09-08T04:26:52.078Z,16.92
2023-09-08T04:29:21.266Z,16.78
2023-09-08T04:31:49.899Z,16.89
2023-09-08T04:34:20.951Z,16.98
2023-09-08T04:36:49.404Z,17.28
2023-09-08T04:39:19.074Z,17.34
2023-09-08T04:41:47.842Z,17.38
2023-09-08T04:44:16.192Z,17.42
2023-09-08T04:46:47.827Z,17.42
2023-09-08T04:49:16.921Z,17.35
2023-09-08T04:51:46.554Z,17.21
2023-09-08T04:54:15.280Z,17.05
2023-09-08T04:56:44.065Z,16.87
2023-09-08T04:59:12.785Z,16.81
2023-09-08T05:01:43.963Z,16.77
2023-09-08T05:04:12.883Z,16.65
2023-09-08T05:06:41.384Z,16.52
2023-09-08T05:09:10.037Z,16.26
2023-09-08T05:11:38.661Z,16.11
2023-09-08T05:14:07.273Z,15.90
2023-09-08T05:16:35.661Z,15.99
2023-09-08T05:19:05.085Z,15.85
2023-09-08T05:21:34.739Z,15.96
2023-09-08T05:24:04.480Z,16.10
2023-09-08T05:26:33.386Z,15.95
2023-09-08T05:29:03.115Z,15.78
2023-09-08T05:31:32.413Z,15.74
2023-09-08T05:34:00.675Z,15.79
2023-09-08T05:36:28.912Z,15.97
2023-09-08T05:38:58.302Z,15.85
2023-09-08T05:41:27.274Z,15.89
2023-09-08T05:43:55.743Z,15.86
2023-09-08T05:46:24.529Z,15.84
2023-09-08T05:48:54.205Z,15.85
2023-09-08T05:51:24.011Z,15.97
2023-09-08T05:53:52.727Z,15.79
2023-09-08T05:56:21.992Z,15.74
2023-09-08T05:58:51.018Z,15.65
2023-09-08T06:01:21.604Z,15.56
2023-09-08T06:03:53.894Z,15.59
2023-09-08T06:06:22.709Z,15.68
2023-09-08T06:08:51.300Z,15.49
2023-09-08T06:11:20.700Z,15.44
2023-09-08T06:13:49.814Z,15.45
2023-09-08T06:16:18.838Z,15.58
2023-09-08T06:18:47.190Z,15.46
2023-09-08T06:21:16.298Z,15.41
2023-09-08T06:23:44.791Z,15.36
2023-09-08T06:26:14.470Z,15.28
2023-09-08T06:28:45.204Z,15.32
2023-09-08T06:31:13.804Z,15.19
2023-09-08T06:33:42.346Z,15.01
2023-09-08T06:36:11.488Z,14.75
2023-09-08T06:38:40.174Z,14.82
2023-09-08T06:41:15.583Z,14.64
2023-09-08T06:43:44.175Z,14.59
2023-09-08T06:46:12.741Z,14.49
2023-09-08T06:48:41.513Z,14.49
2023-09-08T06:51:10.186Z,14.46
2023-09-08T06:53:39.864Z,14.49
2023-09-08T06:56:08.374Z,14.58
2023-09-08T06:58:37.349Z,14.52
2023-09-08T07:01:09.072Z,14.50
2023-09-08T07:03:38.872Z,14.58
2023-09-08T07:06:08.677Z,14.50
2023-09-08T07:08:37.906Z,14.52
2023-09-08T07:11:06.653Z,14.41
2023-09-08T07:13:35.505Z,14.55
2023-09-08T07:16:04.562Z,14.61
2023-09-08T07:18:35.580Z,14.47
2023-09-08T07:21:05.295Z,14.61
2023-09-08T07:23:33.928Z,14.44
2023-09-08T07:26:04.460Z,14.40
2023-09-08T07:28:33.559Z,14.17
2023-09-08T07:31:06.511Z,14.07
2023-09-08T07:33:35.196Z,13.96
2023-09-08T07:36:10.834Z,13.97
2023-09-08T07:38:39.452Z,13.83
2023-09-08T07:41:08.634Z,13.79
2023-09-08T07:43:37.137Z,13.78
2023-09-08T07:46:06.049Z,13.67
2023-09-08T07:48:35.910Z,13.65
2023-09-08T07:51:04.764Z,13.81
2023-09-08T07:53:34.201Z,13.67
2023-09-08T07:56:03.580Z,13.82
2023-09-08T07:58:33.929Z,13.78
2023-09-08T08:01:05.200Z,13.66
2023-09-08T08:03:33.878Z,13.57
2023-09-08T08:06:02.207Z,13.61
2023-09-08T08:08:30.892Z,13.60
2023-09-08T08:11:02.076Z,13.61
2023-09-08T08:13:30.372Z,13.41
2023-09-08T08:16:01.997Z,13.41
2023-09-08T08:18:31.495Z,13.44
2023-09-08T08:21:00.256Z,13.53
2023-09-08T08:23:29.046Z,13.38
2023-09-08T08:25:59.174Z,13.31
2023-09-08T08:28:27.635Z,13.34
2023-09-08T08:30:56.200Z,13.39
2023-09-08T08:33:24.894Z,13.32
2023-09-08T08:35:54.210Z,13.15
2023-09-08T08:38:22.653Z,13.07
2023-09-08T08:40:50.943Z,13.08
2023-09-08T08:43:19.676Z,12.96
2023-09-08T08:45:49.788Z,12.97
2023-09-08T08:48:20.830Z,13.10
2023-09-08T08:50:51.398Z,13.14
2023-09-08T08:53:24.215Z,12.99
2023-09-08T08:55:56.671Z,12.87
2023-09-08T08:58:25.843Z,12.92
2023-09-08T09:00:55.976Z,12.94
2023-09-08T09:03:28.524Z,12.87
2023-09-08T09:05:57.119Z,12.61
2023-09-08T09:08:27.077Z,12.83
2023-09-08T09:10:55.850Z,12.71
2023-09-08T09:13:24.121Z,12.68
2023-09-08T09:15:52.882Z,12.56
2023-09-08T09:18:22.504Z,12.45
2023-09-08T09:21:02.406Z,12.35
2023-09-08T09:23:37.683Z,12.27
2023-09-08T09:26:06.779Z,12.36
2023-09-08T09:28:35.548Z,12.44
2023-09-08T09:31:06.500Z,12.52
2023-09-08T09:33:36.187Z,12.50
2023-09-08T09:36:04.597Z,12.50
2023-09-08T09:38:33.238Z,12.68
2023-09-08T09:41:02.080Z,12.24
2023-09-08T09:43:31.033Z,12.01
2023-09-08T09:46:01.168Z,12.22
2023-09-08T09:48:30.988Z,12.24
2023-09-08T09:51:00.817Z,12.20
2023-09-08T09:53:31.323Z,12.31
2023-09-08T09:56:00.161Z,12.17
2023-09-08T09:58:29.513Z,12.38
2023-09-08T10:00:59.490Z,12.07
2023-09-08T10:03:28.904Z,11.92
2023-09-08T10:05:57.942Z,11.97
2023-09-08T10:08:26.499Z,11.85
2023-09-08T10:10:55.005Z,12.05
2023-09-08T10:13:33.257Z,12.21
2023-09-08T10:16:07.769Z,11.89
2023-09-08T10:18:37.786Z,11.85
2023-09-08T10:21:08.025Z,11.97
2023-09-08T10:23:49.862Z,12.19
2023-09-08T10:26:19.555Z,12.06
2023-09-08T10:28:48.801Z,12.14
2023-09-08T10:31:17.398Z,11.70
2023-09-08T10:33:47.288Z,11.54
2023-09-08T10:36:16.560Z,11.57
2023-09-08T10:38:45.227Z,11.37
2023-09-08T10:41:19.610Z,11.59
2023-09-08T10:43:57.444Z,11.28
2023-09-08T10:46:28.665Z,11.16
2023-09-08T10:49:02.969Z,10.94
2023-09-08T10:51:32.972Z,10.86
2023-09-08T10:54:01.824Z,10.84
2023-09-08T10:56:57.493Z,10.74
2023-09-08T10:59:37.195Z,10.65
2023-09-08T11:02:08.767Z,10.66
2023-09-08T11:04:37.569Z,10.57
2023-09-08T11:07:06.203Z,10.96
2023-09-08T11:09:41.010Z,10.71
2023-09-08T11:12:11.128Z,10.89
2023-09-08T11:14:39.506Z,10.92
2023-09-08T11:17:11.932Z,10.89
2023-09-08T11:19:51.773Z,10.80
2023-09-08T11:22:20.342Z,10.77
2023-09-08T11:24:48.749Z,10.76
2023-09-08T11:27:17.070Z,10.75
2023-09-08T11:29:51.087Z,10.95
2023-09-08T11:32:18.982Z,11.01
2023-09-08T11:34:47.554Z,10.94
2023-09-08T11:37:18.644Z,10.55
2023-09-08T11:39:47.876Z,10.65
2023-09-08T11:42:17.867Z,10.50
2023-09-08T11:44:47.161Z,10.89
2023-09-08T11:47:17.169Z,10.81
2023-09-08T11:49:45.399Z,10.69
2023-09-08T11:52:13.790Z,10.24
2023-09-08T11:54:52.206Z,10.24
2023-09-08T11:57:30.484Z,10.24
2023-09-08T11:59:59.773Z,10.18
2023-09-08T12:02:30.981Z,10.40
2023-09-08T12:04:59.184Z,10.54
2023-09-08T12:07:27.681Z,10.57
2023-09-08T12:09:57.343Z,10.57
2023-09-08T12:12:29.298Z,10.58
2023-09-08T12:14:57.958Z,10.58
2023-09-08T12:17:26.411Z,10.67
2023-09-08T12:19:54.705Z,10.84
2023-09-08T12:22:23.654Z,10.74
2023-09-08T12:25:00.441Z,10.69
2023-09-08T12:27:29.005Z,10.56
2023-09-08T12:30:02.151Z,10.51
2023-09-08T12:32:34.768Z,10.55
2023-09-08T12:35:06.115Z,10.42
2023-09-08T12:37:37.243Z,10.40
2023-09-08T12:40:06.653Z,10.37
2023-09-08T12:42:35.685Z,10.35
2023-09-08T12:45:15.477Z,10.34
2023-09-08T12:47:44.998Z,10.46
2023-09-08T12:50:13.678Z,10.42
2023-09-08T12:52:42.714Z,10.43
2023-09-08T12:55:11.132Z,10.40
2023-09-08T12:57:39.983Z,10.50
2023-09-08T13:00:09.165Z,10.43
2023-09-08T13:02:37.528Z,10.37
2023-09-08T13:05:06.460Z,10.29
2023-09-08T13:07:35.922Z,10.35
2023-09-08T13:10:04.682Z,10.21
2023-09-08T13:12:33.348Z,10.27
2023-09-08T13:15:02.659Z,10.16
2023-09-08T13:17:31.166Z,10.12
2023-09-08T13:19:59.783Z,10.11
2023-09-08T13:22:28.277Z,10.11
2023-09-08T13:24:56.656Z,10.12
2023-09-08T13:27:25.303Z,10.01
2023-09-08T13:29:56.099Z,10.07
2023-09-08T13:32:24.725Z,10.16
2023-09-08T13:34:53.423Z,10.04
2023-09-08T13:37:23.335Z,9.98
2023-09-08T13:39:52.964Z,10.03
2023-09-08T13:42:21.212Z,10.13
2023-09-08T13:44:49.957Z,10.10
2023-09-08T13:47:18.809Z,10.18
2023-09-08T13:49:48.816Z,10.13
2023-09-08T13:52:19.425Z,10.25
2023-09-08T13:54:54.073Z,10.35
2023-09-08T13:57:34.904Z,10.74
2023-09-08T14:00:04.963Z,10.46
2023-09-08T14:05:10.977Z,10.42
2023-09-08T14:07:46.016Z,10.49
2023-09-08T14:10:27.498Z,10.45
2023-09-08T14:12:57.675Z,10.50
2023-09-08T14:15:26.408Z,10.55
2023-09-08T14:17:54.792Z,10.65
2023-09-08T14:20:23.182Z,10.79
2023-09-08T14:22:51.578Z,10.72
2023-09-08T14:25:21.270Z,10.80
2023-09-08T14:27:49.728Z,11.10
2023-09-08T14:30:18.748Z,10.99
2023-09-08T14:32:47.853Z,10.94
2023-09-08T14:35:16.631Z,10.94
2023-09-08T14:37:45.249Z,11.65
2023-09-08T14:40:15.102Z,14.20
2023-09-08T14:42:44.071Z,15.65
2023-09-08T14:45:16.051Z,16.42
2023-09-08T14:47:44.438Z,17.01
2023-09-08T14:50:12.965Z,13.79
2023-09-08T14:52:41.456Z,12.79
2023-09-08T14:55:10.317Z,14.45
2023-09-08T14:57:39.403Z,20.16
2023-09-08T15:00:08.723Z,19.30
2023-09-08T15:02:38.407Z,16.97
2023-09-08T15:05:07.395Z,16.62
2023-09-08T15:07:36.597Z,14.28
2023-09-08T15:10:07.092Z,19.36
2023-09-08T15:12:36.317Z,20.28
2023-09-08T15:15:09.059Z,21.20
2023-09-08T15:17:37.475Z,21.69
2023-09-08T15:20:06.225Z,20.58
2023-09-08T15:22:34.795Z,22.03
2023-09-08T15:25:03.170Z,21.07
2023-09-08T15:27:32.231Z,21.71
2023-09-08T15:30:03.424Z,21.74
2023-09-08T15:32:34.516Z,21.41
2023-09-08T15:35:04.852Z,22.59
2023-09-08T15:37:33.375Z,22.49
2023-09-08T15:40:03.621Z,23.70
2023-09-08T15:42:36.267Z,23.20
2023-09-08T15:45:05.814Z,23.17
2023-09-08T15:47:34.050Z,22.60
2023-09-08T15:50:05.731Z,25.63
2023-09-08T15:52:36.816Z,25.03
2023-09-08T15:55:06.977Z,23.94
2023-09-08T15:57:35.326Z,24.17
2023-09-08T16:00:04.519Z,24.36
2023-09-08T16:02:32.854Z,23.91
2023-09-08T16:05:01.847Z,21.32
2023-09-08T16:07:30.374Z,19.90
2023-09-08T16:09:59.463Z,21.06
2023-09-08T16:12:27.968Z,20.39
2023-09-08T16:14:57.175Z,19.14
2023-09-08T16:17:29.604Z,18.55
2023-09-08T16:19:58.428Z,18.44
2023-09-08T16:22:27.009Z,18.20
2023-09-08T16:24:55.536Z,18.56
2023-09-08T16:27:23.900Z,18.85
2023-09-08T16:29:52.771Z,20.60
2023-09-08T16:32:21.569Z,22.89
2023-09-08T16:34:51.860Z,23.18
2023-09-08T16:37:22.883Z,23.08
2023-09-08T16:39:51.360Z,24.46
2023-09-08T16:42:21.119Z,23.96
2023-09-08T16:44:49.846Z,24.99
2023-09-08T16:47:18.374Z,23.46
2023-09-08T16:49:47.109Z,21.97
2023-09-08T16:52:15.328Z,19.73
2023-09-08T16:54:43.917Z,19.49
2023-09-08T16:57:12.658Z,19.55
2023-09-08T16:59:40.985Z,19.71
2023-09-08T17:02:09.753Z,19.36
2023-09-08T17:04:39.937Z,19.76
2023-09-08T17:07:08.690Z,19.39
2023-09-08T17:09:37.016Z,19.00
2023-09-08T17:12:05.944Z,19.18
2023-09-08T17:14:34.119Z,19.41
2023-09-08T17:17:03.573Z,19.32
2023-09-08T17:19:33.602Z,19.51
2023-09-08T17:22:01.935Z,19.45
2023-09-08T17:24:30.650Z,19.51
2023-09-08T17:26:59.768Z,19.81
2023-09-08T17:29:28.228Z,20.08
2023-09-08T17:31:59.323Z,20.31
2023-09-08T17:34:28.093Z,20.55
2023-09-08T17:36:58.049Z,20.24
2023-09-08T17:39:26.528Z,19.93
2023-09-08T17:41:54.801Z,20.01
2023-09-08T17:44:23.249Z,19.70
2023-09-08T17:46:52.451Z,20.09
2023-09-08T17:49:20.947Z,20.44
2023-09-08T17:51:49.698Z,20.38
2023-09-08T17:54:18.277Z,20.14
2023-09-08T17:56:47.329Z,20.64
2023-09-08T17:59:15.548Z,20.57
2023-09-08T18:01:43.826Z,20.76
2023-09-08T18:04:12.347Z,20.77
2023-09-08T18:06:43.547Z,20.18
2023-09-08T18:09:11.883Z,21.31
2023-09-08T18:11:40.338Z,21.20
2023-09-08T18:14:08.929Z,20.91
2023-09-08T18:16:37.473Z,20.88
2023-09-08T18:19:09.006Z,21.05
2023-09-08T18:21:37.311Z,20.93
2023-09-08T18:24:06.512Z,21.12
2023-09-08T18:26:35.036Z,21.23
2023-09-08T18:29:08.924Z,21.24
2023-09-08T18:31:37.425Z,20.98
2023-09-08T18:34:06.550Z,21.27
2023-09-08T18:36:35.130Z,21.48
2023-09-08T18:39:03.718Z,21.50
2023-09-08T18:41:32.560Z,21.27
2023-09-08T18:44:01.670Z,21.40
2023-09-08T18:46:30.027Z,21.41
2023-09-08T18:48:59.015Z,21.51
2023-09-08T18:51:28.270Z,21.53
2023-09-08T18:53:56.790Z,21.58
2023-09-08T18:56:25.037Z,21.84
2023-09-08T18:58:54.556Z,21.36
2023-09-08T19:01:23.544Z,21.62
2023-09-08T19:03:52.229Z,22.10
2023-09-08T19:06:20.885Z,22.27
2023-09-08T19:08:49.113Z,22.00
2023-09-08T19:11:18.965Z,22.42
2023-09-08T19:13:47.517Z,22.67
2023-09-08T19:16:16.404Z,22.28
2023-09-08T19:18:45.665Z,22.20
2023-09-08T19:21:14.672Z,22.24
2023-09-08T19:23:42.942Z,22.27
2023-09-08T19:26:11.583Z,22.61
2023-09-08T19:28:42.532Z,22.41
2023-09-08T19:31:10.915Z,22.76
2023-09-08T19:33:39.590Z,22.60
2023-09-08T19:36:08.387Z,22.45
2023-09-08T19:38:36.930Z,22.68
2023-09-08T19:41:06.149Z,22.21
2023-09-08T19:43:35.055Z,22.99
2023-09-08T19:46:06.151Z,23.08
2023-09-08T19:48:40.768Z,23.28
2023-09-08T19:51:09.545Z,23.45
2023-09-08T19:53:37.985Z,23.46
2023-09-08T19:56:06.518Z,23.86
2023-09-08T19:58:34.788Z,23.77
2023-09-08T20:01:11.952Z,23.48
2023-09-08T20:03:43.351Z,23.37
2023-09-08T20:06:18.545Z,24.01
2023-09-08T20:08:46.882Z,23.59
2023-09-08T20:11:16.089Z,23.54
2023-09-08T20:13:46.071Z,23.68
2023-09-08T20:16:14.296Z,24.25
2023-09-08T20:18:42.914Z,23.70
2023-09-08T20:21:11.713Z,23.55
2023-09-08T20:23:40.279Z,23.83
2023-09-08T20:26:08.860Z,24.24
2023-09-08T20:28:37.180Z,24.23
2023-09-08T20:31:16.411Z,24.36
2023-09-08T20:33:47.184Z,24.25
2023-09-08T20:36:19.022Z,24.90
2023-09-08T20:38:47.473Z,24.58
2023-09-08T20:41:15.850Z,24.72
2023-09-08T20:43:44.658Z,25.02
2023-09-08T20:46:13.914Z,24.76
2023-09-08T20:48:42.865Z,24.94
2023-09-08T20:51:16.484Z,24.98
2023-09-08T20:53:45.051Z,24.74
2023-09-08T20:56:14.071Z,24.50
2023-09-08T20:58:44.313Z,24.77
2023-09-08T21:01:13.189Z,25.01
2023-09-08T21:03:44.642Z,24.80
2023-09-08T21:06:15.449Z,24.85
2023-09-08T21:08:43.808Z,25.10
2023-09-08T21:11:12.204Z,25.59
2023-09-08T21:13:43.070Z,25.38
2023-09-08T21:16:11.645Z,25.39
2023-09-08T21:18:40.020Z,25.20
2023-09-08T21:21:08.247Z,25.36
2023-09-08T21:23:37.777Z,25.48
2023-09-08T21:26:07.609Z,25.85
2023-09-08T21:28:36.242Z,25.43
2023-09-08T21:31:12.817Z,25.83
2023-09-08T21:33:41.322Z,26.08
2023-09-08T21:36:10.028Z,25.34
2023-09-08T21:38:42.074Z,25.49
2023-09-08T21:41:11.989Z,26.16
2023-09-08T21:43:41.341Z,25.72
2023-09-08T21:46:10.650Z,25.58
2023-09-08T21:48:41.501Z,26.32
2023-09-08T21:51:10.092Z,25.91
2023-09-08T21:53:38.563Z,25.80
2023-09-08T21:56:07.309Z,26.36
2023-09-08T21:58:35.681Z,25.85
2023-09-08T22:01:04.220Z,26.05
2023-09-08T22:03:32.655Z,26.12
2023-09-08T22:06:04.490Z,26.01
2023-09-08T22:08:32.919Z,25.74
2023-09-08T22:11:05.582Z,26.45
2023-09-08T22:13:37.568Z,26.16
2023-09-08T22:16:06.378Z,26.27
2023-09-08T22:18:35.481Z,26.93
2023-09-08T22:21:03.749Z,26.10
2023-09-08T22:23:33.705Z,26.79
2023-09-08T22:26:03.044Z,26.75
2023-09-08T22:28:31.419Z,27.07
2023-09-08T22:30:59.907Z,26.15
2023-09-08T22:33:28.426Z,26.87
2023-09-08T22:35:56.847Z,26.60
2023-09-08T22:38:25.130Z,26.47
2023-09-08T22:40:53.181Z,26.41
2023-09-08T22:43:22.264Z,26.45
2023-09-08T22:45:50.656Z,26.58
2023-09-08T22:48:19.537Z,26.73
2023-09-08T22:50:48.973Z,26.63
2023-09-08T22:53:18.494Z,26.67
2023-09-08T22:55:46.833Z,26.29
2023-09-08T22:58:18.078Z,26.55
2023-09-08T23:00:46.115Z,26.90
2023-09-08T23:03:14.501Z,26.54
2023-09-08T23:05:42.846Z,26.86
2023-09-08T23:08:10.972Z,26.76
2023-09-08T23:10:39.082Z,26.81
2023-09-08T23:13:07.390Z,26.85
2023-09-08T23:15:36.200Z,26.52
2023-09-08T23:18:04.886Z,26.72
2023-09-08T23:20:33.186Z,26.70
2023-09-08T23:23:01.261Z,26.44
2023-09-08T23:25:29.892Z,26.81
2023-09-08T23:27:58.120Z,26.95
2023-09-08T23:30:26.436Z,26.73
2023-09-08T23:32:55.749Z,26.49
2023-09-08T23:35:26.731Z,26.61
2023-09-08T23:37:54.739Z,26.78
2023-09-08T23:40:23.080Z,26.89
2023-09-08T23:42:51.386Z,26.88
2023-09-08T23:45:20.226Z,26.83
2023-09-08T23:47:48.862Z,26.81
2023-09-08T23:50:17.755Z,26.90
2023-09-08T23:52:48.433Z,26.97
2023-09-08T23:55:20.281Z,26.70
2023-09-08T23:57:48.602Z,26.75
